SPFZK EPWR-EPKT
Flight info
| Callsign | SPFZK |
|---|---|
| Flight time | N/A |
| Altitude | 7000 |
| Route | MOFKE |
| Aircraft | DA62/L-SDFGRY/C |
Departure
| Time | 2026-05-05 19:54 |
|---|---|
| Airport | Copernicus Wrocław Airport (EPWR) |
Arrival
| Time | N/A |
|---|---|
| Airport | Katowice Wojciech Korfanty International Airport (EPKT) |
| Time | Latitude | Longitude | Altitude | Speed | Heading |
|---|---|---|---|---|---|
| 2026-05-05 19:36 | 51.09927 | 16.88330 | 398 ft | 0 kts | 40° |
| 2026-05-05 19:49 | 51.09929 | 16.88332 | 398 ft | 0 kts | 39° |
| 2026-05-05 19:50 | 51.09934 | 16.88389 | 398 ft | 6 kts | 131° |
| 2026-05-05 19:50 | 51.09883 | 16.88488 | 398 ft | 19 kts | 130° |
| 2026-05-05 19:50 | 51.09797 | 16.88654 | 398 ft | 19 kts | 130° |
| 2026-05-05 19:51 | 51.09721 | 16.88806 | 398 ft | 15 kts | 106° |
| 2026-05-05 19:51 | 51.09704 | 16.88958 | 398 ft | 13 kts | 100° |
| 2026-05-05 19:51 | 51.09688 | 16.89095 | 398 ft | 12 kts | 99° |
| 2026-05-05 19:51 | 51.09674 | 16.89221 | 398 ft | 11 kts | 100° |
| 2026-05-05 19:52 | 51.09661 | 16.89338 | 398 ft | 11 kts | 99° |
| 2026-05-05 19:52 | 51.09644 | 16.89512 | 398 ft | 18 kts | 101° |
| 2026-05-05 19:52 | 51.09666 | 16.89610 | 398 ft | 8 kts | 26° |
| 2026-05-05 19:52 | 51.09734 | 16.89663 | 398 ft | 16 kts | 25° |
| 2026-05-05 19:53 | 51.09857 | 16.89758 | 398 ft | 14 kts | 25° |
| 2026-05-05 19:53 | 51.09928 | 16.89688 | 398 ft | 35 kts | 297° |
| 2026-05-05 19:53 | 51.10121 | 16.89059 | 400 ft | 88 kts | 297° |
| 2026-05-05 19:53 | 51.10424 | 16.88087 | 558 ft | 105 kts | 306° |
| 2026-05-05 19:54 | 51.10757 | 16.87020 | 786 ft | 116 kts | 302° |
| 2026-05-05 19:54 | 51.11176 | 16.85830 | 1023 ft | 122 kts | 303° |
| 2026-05-05 19:54 | 51.11576 | 16.84635 | 1300 ft | 122 kts | 308° |
| 2026-05-05 19:54 | 51.11976 | 16.83414 | 1544 ft | 127 kts | 307° |
| 2026-05-05 19:55 | 51.12338 | 16.82116 | 1784 ft | 130 kts | 306° |
| 2026-05-05 19:55 | 51.12604 | 16.81247 | 1942 ft | 135 kts | 306° |
| 2026-05-05 19:55 | 51.13190 | 16.79436 | 2283 ft | 140 kts | 307° |
| 2026-05-05 19:55 | 51.13493 | 16.78520 | 2463 ft | 142 kts | 305° |
| 2026-05-05 19:56 | 51.14108 | 16.76668 | 2837 ft | 144 kts | 304° |
| 2026-05-05 19:56 | 51.14570 | 16.75239 | 3132 ft | 145 kts | 302° |
| 2026-05-05 19:56 | 51.15046 | 16.73815 | 3431 ft | 146 kts | 302° |
| 2026-05-05 19:56 | 51.15527 | 16.72374 | 3713 ft | 149 kts | 298° |
| 2026-05-05 19:57 | 51.15813 | 16.71381 | 3884 ft | 149 kts | 297° |
| 2026-05-05 19:57 | 51.16254 | 16.69892 | 4175 ft | 149 kts | 297° |
| 2026-05-05 19:57 | 51.16708 | 16.68410 | 4466 ft | 149 kts | 297° |
| 2026-05-05 19:57 | 51.17178 | 16.66933 | 4742 ft | 150 kts | 297° |
| 2026-05-05 19:58 | 51.17698 | 16.65377 | 5026 ft | 150 kts | 297° |
| 2026-05-05 19:58 | 51.18343 | 16.63535 | 5392 ft | 151 kts | 297° |
| 2026-05-05 19:58 | 51.18763 | 16.62625 | 5595 ft | 154 kts | 320° |
| 2026-05-05 19:58 | 51.19786 | 16.62250 | 5896 ft | 157 kts | 15° |
| 2026-05-05 19:59 | 51.20593 | 16.63257 | 6189 ft | 151 kts | 70° |
| 2026-05-05 19:59 | 51.20924 | 16.64823 | 6459 ft | 150 kts | 79° |
| 2026-05-05 19:59 | 51.21231 | 16.66424 | 6745 ft | 151 kts | 79° |
| 2026-05-05 19:59 | 51.21537 | 16.68033 | 6994 ft | 155 kts | 79° |
| 2026-05-05 20:00 | 51.21860 | 16.69790 | 7005 ft | 172 kts | 79° |
| 2026-05-05 20:00 | 51.22196 | 16.71698 | 7008 ft | 184 kts | 79° |
| 2026-05-05 20:00 | 51.22541 | 16.73697 | 7009 ft | 190 kts | 79° |
| 2026-05-05 20:00 | 51.22894 | 16.75757 | 7009 ft | 194 kts | 79° |
| 2026-05-05 20:01 | 51.23251 | 16.77849 | 7008 ft | 197 kts | 79° |
| 2026-05-05 20:01 | 51.23604 | 16.79932 | 7002 ft | 198 kts | 79° |
| 2026-05-05 20:01 | 51.23962 | 16.82058 | 7001 ft | 199 kts | 79° |
| 2026-05-05 20:01 | 51.24320 | 16.84186 | 6999 ft | 199 kts | 79° |
| 2026-05-05 20:02 | 51.24678 | 16.86320 | 6998 ft | 199 kts | 79° |
| 2026-05-05 20:02 | 51.25017 | 16.88464 | 6994 ft | 198 kts | 86° |
| 2026-05-05 20:02 | 51.24778 | 16.90540 | 7005 ft | 190 kts | 120° |
| 2026-05-05 20:02 | 51.24153 | 16.92389 | 7008 ft | 190 kts | 124° |
| 2026-05-05 20:03 | 51.23496 | 16.94215 | 7006 ft | 190 kts | 124° |
| 2026-05-05 20:03 | 51.22845 | 16.96021 | 7003 ft | 190 kts | 124° |
| 2026-05-05 20:03 | 51.22183 | 16.97850 | 7005 ft | 191 kts | 124° |
| 2026-05-05 20:03 | 51.21474 | 16.99630 | 7008 ft | 190 kts | 132° |
| 2026-05-05 20:04 | 51.20656 | 17.01276 | 7005 ft | 189 kts | 133° |
| 2026-05-05 20:04 | 51.19828 | 17.02906 | 7003 ft | 189 kts | 134° |
| 2026-05-05 20:04 | 51.19001 | 17.04540 | 7002 ft | 189 kts | 133° |
| 2026-05-05 20:04 | 51.18169 | 17.06165 | 6999 ft | 189 kts | 133° |
| 2026-05-05 20:05 | 51.17336 | 17.07786 | 6999 ft | 189 kts | 133° |
| 2026-05-05 20:05 | 51.16505 | 17.09416 | 6997 ft | 189 kts | 133° |
| 2026-05-05 20:05 | 51.15673 | 17.11050 | 6996 ft | 189 kts | 134° |
| 2026-05-05 20:05 | 51.14859 | 17.12656 | 6994 ft | 189 kts | 134° |
| 2026-05-05 20:06 | 51.14032 | 17.14285 | 6992 ft | 189 kts | 133° |
| 2026-05-05 20:06 | 51.13201 | 17.15917 | 6990 ft | 190 kts | 134° |
| 2026-05-05 20:06 | 51.12371 | 17.17554 | 6988 ft | 190 kts | 133° |
| 2026-05-05 20:06 | 51.11538 | 17.19189 | 6987 ft | 190 kts | 133° |
| 2026-05-05 20:07 | 51.10702 | 17.20822 | 6986 ft | 190 kts | 134° |
| 2026-05-05 20:07 | 51.09868 | 17.22462 | 6983 ft | 190 kts | 134° |
| 2026-05-05 20:07 | 51.09036 | 17.24098 | 6984 ft | 190 kts | 134° |
| 2026-05-05 20:07 | 51.08216 | 17.25709 | 6985 ft | 190 kts | 134° |
| 2026-05-05 20:08 | 51.07390 | 17.27338 | 6983 ft | 189 kts | 133° |
| 2026-05-05 20:08 | 51.06559 | 17.28961 | 6985 ft | 189 kts | 134° |
| 2026-05-05 20:08 | 51.05731 | 17.30596 | 6982 ft | 190 kts | 133° |
| 2026-05-05 20:08 | 51.04900 | 17.32231 | 6981 ft | 191 kts | 134° |
| 2026-05-05 20:09 | 51.04067 | 17.33867 | 6980 ft | 191 kts | 133° |
| 2026-05-05 20:09 | 51.03230 | 17.35517 | 6978 ft | 192 kts | 133° |
| 2026-05-05 20:09 | 51.02393 | 17.37162 | 6978 ft | 192 kts | 134° |
| 2026-05-05 20:09 | 51.01570 | 17.38788 | 6978 ft | 191 kts | 134° |
| 2026-05-05 20:10 | 51.00733 | 17.40436 | 6979 ft | 191 kts | 134° |
| 2026-05-05 20:10 | 50.99896 | 17.42076 | 6980 ft | 191 kts | 134° |
| 2026-05-05 20:10 | 50.99057 | 17.43722 | 6972 ft | 191 kts | 133° |
| 2026-05-05 20:10 | 50.98218 | 17.45362 | 6971 ft | 191 kts | 134° |
| 2026-05-05 20:11 | 50.97376 | 17.46997 | 6973 ft | 191 kts | 134° |
| 2026-05-05 20:11 | 50.96541 | 17.48631 | 6974 ft | 191 kts | 134° |
| 2026-05-05 20:11 | 50.95705 | 17.50274 | 6973 ft | 191 kts | 134° |
| 2026-05-05 20:11 | 50.94855 | 17.51936 | 6974 ft | 191 kts | 134° |
| 2026-05-05 20:12 | 50.94039 | 17.53529 | 6973 ft | 191 kts | 134° |
| 2026-05-05 20:12 | 50.93198 | 17.55166 | 6971 ft | 191 kts | 134° |
| 2026-05-05 20:12 | 50.92360 | 17.56796 | 6971 ft | 191 kts | 134° |
| 2026-05-05 20:12 | 50.91522 | 17.58431 | 6973 ft | 191 kts | 134° |
| 2026-05-05 20:13 | 50.90686 | 17.60068 | 6973 ft | 191 kts | 134° |
| 2026-05-05 20:13 | 50.89850 | 17.61705 | 6971 ft | 191 kts | 134° |
| 2026-05-05 20:13 | 50.89015 | 17.63337 | 6971 ft | 191 kts | 134° |
| 2026-05-05 20:13 | 50.88187 | 17.64956 | 6970 ft | 192 kts | 134° |
| 2026-05-05 20:14 | 50.87348 | 17.66594 | 6969 ft | 192 kts | 134° |
| 2026-05-05 20:14 | 50.86506 | 17.68230 | 6969 ft | 192 kts | 134° |
| 2026-05-05 20:14 | 50.85661 | 17.69873 | 6969 ft | 192 kts | 134° |
| 2026-05-05 20:14 | 50.84814 | 17.71519 | 6974 ft | 192 kts | 134° |
| 2026-05-05 20:15 | 50.83969 | 17.73158 | 6976 ft | 192 kts | 134° |
| 2026-05-05 20:15 | 50.83121 | 17.74797 | 6973 ft | 193 kts | 134° |
| 2026-05-05 20:15 | 50.82273 | 17.76440 | 6973 ft | 193 kts | 134° |
| 2026-05-05 20:15 | 50.81435 | 17.78061 | 6975 ft | 193 kts | 134° |
| 2026-05-05 20:16 | 50.80586 | 17.79703 | 6975 ft | 192 kts | 134° |
| 2026-05-05 20:16 | 50.79739 | 17.81339 | 6973 ft | 193 kts | 134° |
| 2026-05-05 20:16 | 50.78889 | 17.82983 | 6974 ft | 193 kts | 134° |
| 2026-05-05 20:16 | 50.78041 | 17.84626 | 6975 ft | 193 kts | 134° |
| 2026-05-05 20:17 | 50.77198 | 17.86273 | 6972 ft | 194 kts | 131° |
| 2026-05-05 20:17 | 50.76700 | 17.88265 | 6977 ft | 198 kts | 107° |
| 2026-05-05 20:17 | 50.76430 | 17.90400 | 6977 ft | 198 kts | 105° |
| 2026-05-05 20:17 | 50.76177 | 17.92543 | 6976 ft | 198 kts | 105° |
| 2026-05-05 20:18 | 50.75927 | 17.94652 | 6980 ft | 198 kts | 104° |
| 2026-05-05 20:18 | 50.75674 | 17.96790 | 6978 ft | 198 kts | 105° |
| 2026-05-05 20:18 | 50.75419 | 17.98930 | 6975 ft | 198 kts | 105° |
| 2026-05-05 20:18 | 50.75168 | 18.01069 | 6977 ft | 198 kts | 104° |
| 2026-05-05 20:19 | 50.74912 | 18.03207 | 6981 ft | 198 kts | 105° |
| 2026-05-05 20:19 | 50.74657 | 18.05343 | 6980 ft | 198 kts | 105° |
| 2026-05-05 20:19 | 50.74405 | 18.07486 | 6981 ft | 198 kts | 105° |
| 2026-05-05 20:19 | 50.74163 | 18.09626 | 6980 ft | 199 kts | 104° |
| 2026-05-05 20:20 | 50.73922 | 18.11750 | 6984 ft | 199 kts | 105° |
| 2026-05-05 20:20 | 50.73679 | 18.13900 | 6983 ft | 199 kts | 105° |
| 2026-05-05 20:20 | 50.73437 | 18.16048 | 6983 ft | 199 kts | 104° |
| 2026-05-05 20:20 | 50.73191 | 18.18199 | 6982 ft | 199 kts | 105° |
| 2026-05-05 20:21 | 50.72944 | 18.20348 | 6980 ft | 199 kts | 105° |
| 2026-05-05 20:21 | 50.72696 | 18.22494 | 6979 ft | 199 kts | 105° |
| 2026-05-05 20:21 | 50.72449 | 18.24639 | 6987 ft | 199 kts | 105° |
| 2026-05-05 20:21 | 50.72203 | 18.26789 | 6987 ft | 199 kts | 105° |
| 2026-05-05 20:22 | 50.71958 | 18.28912 | 6985 ft | 199 kts | 105° |
| 2026-05-05 20:22 | 50.71711 | 18.31063 | 6985 ft | 200 kts | 105° |
| 2026-05-05 20:22 | 50.71464 | 18.33218 | 6987 ft | 199 kts | 105° |
| 2026-05-05 20:22 | 50.71215 | 18.35365 | 6985 ft | 199 kts | 105° |
| 2026-05-05 20:23 | 50.70963 | 18.37520 | 6988 ft | 199 kts | 105° |
| 2026-05-05 20:23 | 50.70715 | 18.39669 | 6988 ft | 199 kts | 105° |
| 2026-05-05 20:23 | 50.70466 | 18.41817 | 6985 ft | 199 kts | 105° |
| 2026-05-05 20:23 | 50.70213 | 18.43967 | 6996 ft | 200 kts | 105° |
| 2026-05-05 20:24 | 50.69960 | 18.46120 | 6994 ft | 200 kts | 105° |
| 2026-05-05 20:24 | 50.69708 | 18.48270 | 6994 ft | 199 kts | 105° |
| 2026-05-05 20:24 | 50.69460 | 18.50388 | 6995 ft | 199 kts | 105° |
| 2026-05-05 20:24 | 50.69209 | 18.52542 | 6993 ft | 199 kts | 105° |
| 2026-05-05 20:25 | 50.68958 | 18.54693 | 6995 ft | 199 kts | 105° |
| 2026-05-05 20:25 | 50.68706 | 18.56840 | 6996 ft | 199 kts | 105° |
| 2026-05-05 20:25 | 50.68453 | 18.58993 | 6997 ft | 199 kts | 105° |
| 2026-05-05 20:25 | 50.68203 | 18.61143 | 7002 ft | 199 kts | 105° |
| 2026-05-05 20:26 | 50.67953 | 18.63295 | 7004 ft | 200 kts | 105° |
| 2026-05-05 20:26 | 50.67706 | 18.65447 | 7005 ft | 200 kts | 105° |
| 2026-05-05 20:26 | 50.67462 | 18.67564 | 7004 ft | 199 kts | 105° |
| 2026-05-05 20:26 | 50.67212 | 18.69718 | 7005 ft | 199 kts | 105° |
| 2026-05-05 20:27 | 50.66963 | 18.71867 | 7005 ft | 199 kts | 104° |
| 2026-05-05 20:27 | 50.66712 | 18.74011 | 7004 ft | 199 kts | 105° |
| 2026-05-05 20:27 | 50.66462 | 18.76155 | 7003 ft | 199 kts | 105° |
| 2026-05-05 20:27 | 50.66212 | 18.78305 | 7002 ft | 199 kts | 105° |
| 2026-05-05 20:28 | 50.65963 | 18.80449 | 6981 ft | 200 kts | 105° |
| 2026-05-05 20:28 | 50.65703 | 18.82641 | 6834 ft | 206 kts | 105° |
| 2026-05-05 20:28 | 50.65437 | 18.84880 | 6686 ft | 209 kts | 105° |
| 2026-05-05 20:28 | 50.65175 | 18.87103 | 6544 ft | 211 kts | 105° |
| 2026-05-05 20:29 | 50.64906 | 18.89386 | 6399 ft | 212 kts | 105° |
| 2026-05-05 20:29 | 50.64635 | 18.91672 | 6254 ft | 212 kts | 105° |
| 2026-05-05 20:29 | 50.64367 | 18.93960 | 6106 ft | 213 kts | 105° |
| 2026-05-05 20:29 | 50.64096 | 18.96249 | 5951 ft | 213 kts | 106° |
| 2026-05-05 20:30 | 50.63862 | 18.98556 | 5788 ft | 214 kts | 105° |
| 2026-05-05 20:30 | 50.63666 | 19.00884 | 5633 ft | 214 kts | 105° |
| 2026-05-05 20:30 | 50.63431 | 19.03196 | 5454 ft | 214 kts | 108° |
| 2026-05-05 20:30 | 50.63149 | 19.05468 | 5248 ft | 215 kts | 109° |
| 2026-05-05 20:31 | 50.62858 | 19.07794 | 5026 ft | 217 kts | 109° |
| 2026-05-05 20:31 | 50.62568 | 19.10132 | 4784 ft | 218 kts | 109° |
| 2026-05-05 20:31 | 50.62202 | 19.12433 | 4569 ft | 211 kts | 123° |
| 2026-05-05 20:31 | 50.61282 | 19.14079 | 4328 ft | 197 kts | 150° |
| 2026-05-05 20:32 | 50.60176 | 19.15350 | 4082 ft | 196 kts | 153° |
| 2026-05-05 20:32 | 50.59061 | 19.16580 | 3852 ft | 195 kts | 153° |
| 2026-05-05 20:32 | 50.57957 | 19.17787 | 3654 ft | 192 kts | 153° |
| 2026-05-05 20:32 | 50.56756 | 19.18479 | 3469 ft | 182 kts | 175° |
| 2026-05-05 20:33 | 50.55526 | 19.18678 | 3283 ft | 178 kts | 185° |
| 2026-05-05 20:33 | 50.54290 | 19.18560 | 3096 ft | 178 kts | 189° |
| 2026-05-05 20:33 | 50.53122 | 19.18421 | 3055 ft | 141 kts | 189° |
| 2026-05-05 20:33 | 50.52357 | 19.18384 | 2977 ft | 88 kts | 188° |
| 2026-05-05 20:34 | 50.51817 | 19.18408 | 2873 ft | 73 kts | 188° |
| 2026-05-05 20:34 | 50.51277 | 19.18422 | 2656 ft | 84 kts | 188° |
| 2026-05-05 20:34 | 50.50620 | 19.18404 | 2445 ft | 103 kts | 189° |
| 2026-05-05 20:34 | 50.49883 | 19.18338 | 2207 ft | 105 kts | 191° |
| 2026-05-05 20:35 | 50.49193 | 19.18203 | 2039 ft | 97 kts | 194° |
| 2026-05-05 20:35 | 50.48517 | 19.17997 | 2062 ft | 97 kts | 198° |
| 2026-05-05 20:35 | 50.47972 | 19.17459 | 1996 ft | 88 kts | 226° |
| 2026-05-05 20:35 | 50.47719 | 19.16629 | 1784 ft | 92 kts | 250° |
| 2026-05-05 20:36 | 50.47645 | 19.15587 | 1700 ft | 97 kts | 262° |
| 2026-05-05 20:36 | 50.47623 | 19.14513 | 1492 ft | 96 kts | 265° |
| 2026-05-05 20:36 | 50.47603 | 19.13450 | 1464 ft | 97 kts | 265° |
| 2026-05-05 20:36 | 50.47596 | 19.12380 | 1360 ft | 99 kts | 266° |
| 2026-05-05 20:37 | 50.47596 | 19.11274 | 1223 ft | 105 kts | 267° |
| 2026-05-05 20:37 | 50.47602 | 19.10143 | 1066 ft | 102 kts | 267° |
| 2026-05-05 20:37 | 50.47603 | 19.09094 | 1000 ft | 85 kts | 266° |